createdAt,value
2017-11-29T00:00:05.883Z,36.17
2017-11-29T00:01:08.437Z,37.63
2017-11-29T00:02:11.210Z,37.53
2017-11-29T00:03:14.558Z,37.60
2017-11-29T00:04:18.068Z,37.45
2017-11-29T00:05:20.655Z,39.53
2017-11-29T00:06:23.404Z,39.38
2017-11-29T00:07:26.078Z,37.75
2017-11-29T00:08:28.731Z,35.70
2017-11-29T00:09:31.287Z,37.15
2017-11-29T00:10:34.900Z,35.25
2017-11-29T00:11:37.449Z,35.10
2017-11-29T00:12:40.925Z,35.40
2017-11-29T00:13:44.347Z,38.58
2017-11-29T00:14:47.276Z,38.60
2017-11-29T00:15:49.854Z,37.03
2017-11-29T00:16:53.451Z,38.85
2017-11-29T00:17:56.778Z,38.80
2017-11-29T00:19:00.648Z,39.50
2017-11-29T00:20:03.192Z,38.55
2017-11-29T00:21:06.513Z,37.65
2017-11-29T00:22:09.067Z,36.85
2017-11-29T00:23:11.938Z,36.13
2017-11-29T00:24:14.527Z,38.53
2017-11-29T00:25:22.174Z,37.33
2017-11-29T00:26:25.519Z,38.00
2017-11-29T00:27:28.079Z,36.75
2017-11-29T00:28:30.637Z,36.35
2017-11-29T00:29:33.730Z,37.17
2017-11-29T00:30:36.281Z,34.13
2017-11-29T00:31:39.165Z,36.83
2017-11-29T00:32:41.735Z,37.47
2017-11-29T00:33:44.492Z,34.78
2017-11-29T00:34:47.251Z,34.75
2017-11-29T00:35:50.162Z,32.70
2017-11-29T00:36:52.722Z,34.85
2017-11-29T00:37:55.387Z,38.08
2017-11-29T00:38:57.963Z,34.55
2017-11-29T00:40:00.809Z,36.42
2017-11-29T00:41:03.376Z,34.47
2017-11-29T00:42:06.133Z,34.58
2017-11-29T00:43:08.678Z,34.45
2017-11-29T00:44:12.010Z,31.55
2017-11-29T00:45:14.542Z,33.15
2017-11-29T00:46:18.043Z,34.00
2017-11-29T00:47:20.583Z,36.28
2017-11-29T00:48:25.239Z,32.80
2017-11-29T00:49:27.786Z,34.10
2017-11-29T00:50:30.555Z,31.15
2017-11-29T00:51:33.107Z,31.45
2017-11-29T00:52:36.493Z,34.10
2017-11-29T00:53:39.817Z,33.53
2017-11-29T00:54:42.468Z,33.85
2017-11-29T00:55:45.011Z,33.05
2017-11-29T00:56:50.556Z,34.28
2017-11-29T00:57:53.857Z,34.95
2017-11-29T00:58:56.520Z,34.08
2017-11-29T00:59:59.077Z,33.45
2017-11-29T01:01:02.417Z,34.25
2017-11-29T01:02:04.971Z,34.33
2017-11-29T01:03:08.414Z,34.40
2017-11-29T01:04:11.744Z,32.72
2017-11-29T01:05:14.701Z,36.28
2017-11-29T01:06:17.241Z,34.63
2017-11-29T01:07:20.545Z,34.42
2017-11-29T01:08:23.089Z,34.67
2017-11-29T01:09:26.607Z,33.78
2017-11-29T01:10:29.158Z,35.60
2017-11-29T01:11:31.964Z,33.85
2017-11-29T01:12:34.513Z,35.25
2017-11-29T01:13:37.288Z,34.35
2017-11-29T01:14:39.879Z,34.72
2017-11-29T01:15:42.566Z,35.25
2017-11-29T01:16:45.137Z,35.20
2017-11-29T01:17:47.951Z,36.10
2017-11-29T01:18:51.302Z,33.60
2017-11-29T01:19:54.813Z,36.47
2017-11-29T01:20:58.118Z,36.03
2017-11-29T01:22:00.774Z,36.63
2017-11-29T01:23:03.306Z,35.90
2017-11-29T01:24:06.120Z,35.25
2017-11-29T01:25:08.650Z,37.25
2017-11-29T01:26:11.467Z,35.17
2017-11-29T01:27:13.994Z,38.53
2017-11-29T01:28:17.394Z,38.50
2017-11-29T01:29:19.933Z,37.17
2017-11-29T01:30:22.726Z,36.97
2017-11-29T01:31:26.062Z,40.80
2017-11-29T01:32:28.712Z,39.22
2017-11-29T01:33:31.275Z,36.97
2017-11-29T01:34:34.028Z,38.10
2017-11-29T01:35:36.577Z,38.90
2017-11-29T01:36:39.975Z,37.00
2017-11-29T01:37:43.301Z,35.00
2017-11-29T01:38:45.953Z,35.90
2017-11-29T01:39:48.514Z,39.40
2017-11-29T01:40:51.282Z,37.03
2017-11-29T01:41:53.843Z,40.25
2017-11-29T01:42:56.632Z,39.55
2017-11-29T01:43:59.212Z,40.75
2017-11-29T01:45:02.886Z,42.60
2017-11-29T01:46:05.511Z,42.28
2017-11-29T01:47:08.285Z,39.45
2017-11-29T01:48:11.701Z,43.08
2017-11-29T01:49:14.477Z,43.40
2017-11-29T01:50:17.036Z,44.53
2017-11-29T01:51:19.841Z,46.50
2017-11-29T01:52:22.486Z,46.97
2017-11-29T01:53:25.130Z,47.08
2017-11-29T01:54:28.457Z,48.13
2017-11-29T01:55:31.100Z,44.17
2017-11-29T01:56:33.664Z,47.55
2017-11-29T01:57:37.161Z,49.15
2017-11-29T01:58:39.726Z,47.65
2017-11-29T01:59:42.711Z,46.45
2017-11-29T02:00:49.386Z,47.55
2017-11-29T02:01:52.067Z,45.92
2017-11-29T02:02:54.644Z,44.13
2017-11-29T02:03:57.333Z,45.17
2017-11-29T02:04:59.906Z,45.10
2017-11-29T02:06:02.772Z,40.60
2017-11-29T02:07:05.373Z,43.78
2017-11-29T02:08:08.084Z,43.15
2017-11-29T02:09:10.699Z,44.55
2017-11-29T02:10:14.345Z,46.28
2017-11-29T02:11:16.912Z,46.53
2017-11-29T02:12:19.677Z,46.15
2017-11-29T02:13:22.243Z,43.28
2017-11-29T02:14:25.021Z,46.40
2017-11-29T02:15:27.575Z,48.60
2017-11-29T02:16:30.355Z,47.75
2017-11-29T02:17:32.941Z,48.42
2017-11-29T02:18:35.694Z,47.17
2017-11-29T02:19:38.266Z,45.47
2017-11-29T02:20:41.050Z,48.63
2017-11-29T02:21:43.927Z,45.92
2017-11-29T02:22:46.677Z,49.22
2017-11-29T02:23:49.299Z,46.03
2017-11-29T02:24:52.954Z,48.67
2017-11-29T02:25:55.519Z,47.53
2017-11-29T02:26:58.301Z,48.33
2017-11-29T02:28:00.873Z,46.47
2017-11-29T02:29:05.140Z,52.30
2017-11-29T02:30:07.734Z,49.33
2017-11-29T02:31:10.481Z,51.92
2017-11-29T02:32:13.094Z,50.78
2017-11-29T02:33:15.857Z,52.35
2017-11-29T02:34:18.409Z,49.40
2017-11-29T02:35:21.164Z,51.28
2017-11-29T02:36:23.693Z,51.75
2017-11-29T02:37:27.115Z,48.13
2017-11-29T02:38:29.688Z,53.95
2017-11-29T02:39:32.422Z,52.97
2017-11-29T02:40:48.108Z,48.83
2017-11-29T02:42:02.503Z,49.75
2017-11-29T02:43:05.248Z,51.70
2017-11-29T02:44:07.793Z,48.20
2017-11-29T02:45:12.230Z,48.70
2017-11-29T02:46:14.792Z,50.25
2017-11-29T02:47:17.564Z,50.20
2017-11-29T02:48:20.126Z,52.33
2017-11-29T02:49:22.796Z,49.72
2017-11-29T02:50:25.349Z,49.97
2017-11-29T02:51:28.132Z,51.55
2017-11-29T02:52:30.702Z,50.40
2017-11-29T02:53:34.479Z,51.35
2017-11-29T02:54:37.050Z,51.35
2017-11-29T02:55:40.075Z,52.67
2017-11-29T02:56:42.656Z,51.67
2017-11-29T02:57:45.440Z,48.28
2017-11-29T02:58:48.882Z,50.53
2017-11-29T02:59:51.717Z,49.50
2017-11-29T03:00:54.262Z,48.75
2017-11-29T03:01:57.658Z,51.70
2017-11-29T03:03:00.971Z,49.22
2017-11-29T03:04:03.645Z,49.05
2017-11-29T03:05:06.179Z,51.20
2017-11-29T03:06:08.967Z,47.42
2017-11-29T03:07:11.736Z,50.45
2017-11-29T03:08:16.448Z,52.50
2017-11-29T03:09:19.032Z,55.50
2017-11-29T03:10:21.784Z,52.78
2017-11-29T03:11:24.338Z,49.83
2017-11-29T03:12:27.762Z,47.35
2017-11-29T03:13:30.326Z,49.72
2017-11-29T03:14:33.497Z,52.13
2017-11-29T03:15:36.033Z,49.92
2017-11-29T03:16:39.684Z,52.80
2017-11-29T03:17:42.222Z,52.62
2017-11-29T03:18:44.961Z,51.25
2017-11-29T03:19:47.521Z,51.42
2017-11-29T03:20:50.321Z,50.03
2017-11-29T03:21:52.877Z,54.38
2017-11-29T03:22:56.580Z,50.90
2017-11-29T03:23:59.921Z,49.05
2017-11-29T03:25:02.466Z,51.70
2017-11-29T03:26:04.996Z,54.78
2017-11-29T03:27:07.552Z,54.03
2017-11-29T03:28:10.867Z,56.20
2017-11-29T03:29:13.538Z,56.13
2017-11-29T03:30:16.085Z,55.50
2017-11-29T03:31:18.856Z,57.65
2017-11-29T03:32:21.426Z,57.17
2017-11-29T03:33:24.134Z,56.10
2017-11-29T03:34:26.676Z,54.50
2017-11-29T03:35:29.217Z,53.87
2017-11-29T03:36:32.522Z,52.85
2017-11-29T03:37:35.186Z,51.75
2017-11-29T03:38:37.746Z,50.17
2017-11-29T03:39:41.125Z,49.55
2017-11-29T03:40:44.415Z,48.58
2017-11-29T03:41:47.086Z,44.80
2017-11-29T03:42:49.686Z,45.20
2017-11-29T03:43:52.442Z,45.45
2017-11-29T03:44:54.983Z,44.47
2017-11-29T03:45:58.368Z,43.65
2017-11-29T03:47:00.923Z,44.60
2017-11-29T03:48:04.350Z,43.95
2017-11-29T03:49:06.926Z,40.53
2017-11-29T03:50:09.680Z,42.10
2017-11-29T03:51:12.380Z,42.85
2017-11-29T03:52:15.598Z,44.53
2017-11-29T03:53:18.135Z,42.15
2017-11-29T03:54:20.897Z,43.08
2017-11-29T03:55:23.474Z,45.10
2017-11-29T03:56:26.459Z,44.40
2017-11-29T03:57:29.088Z,44.35
2017-11-29T03:58:31.624Z,45.53
2017-11-29T03:59:34.939Z,44.97
2017-11-29T04:00:37.571Z,43.75
2017-11-29T04:01:40.884Z,44.38
2017-11-29T04:02:43.543Z,47.10
2017-11-29T04:03:46.089Z,47.95
2017-11-29T04:04:49.495Z,47.35
2017-11-29T04:05:52.047Z,47.97
2017-11-29T04:06:55.435Z,46.58
2017-11-29T04:07:58.762Z,46.22
2017-11-29T04:09:01.411Z,46.85
2017-11-29T04:10:03.951Z,46.42
2017-11-29T04:11:07.354Z,47.50
2017-11-29T04:12:10.644Z,48.08
2017-11-29T04:13:14.230Z,47.75
2017-11-29T04:14:16.781Z,47.50
2017-11-29T04:15:20.176Z,46.95
2017-11-29T04:16:23.508Z,49.00
2017-11-29T04:17:26.070Z,48.67
2017-11-29T04:18:28.620Z,48.47
2017-11-29T04:19:31.196Z,50.15
2017-11-29T04:20:33.745Z,49.20
2017-11-29T04:21:36.814Z,50.35
2017-11-29T04:22:39.361Z,49.00
2017-11-29T04:23:42.768Z,47.53
2017-11-29T04:24:45.722Z,46.53
2017-11-29T04:25:49.322Z,46.75
2017-11-29T04:26:52.621Z,47.15
2017-11-29T04:27:55.280Z,48.60
2017-11-29T04:28:58.608Z,47.95
2017-11-29T04:30:01.237Z,47.05
2017-11-29T04:31:04.548Z,47.55
2017-11-29T04:32:07.184Z,48.17
2017-11-29T04:33:10.904Z,46.72
2017-11-29T04:34:15.607Z,46.20
2017-11-29T04:35:18.162Z,51.97
2017-11-29T04:36:21.551Z,48.78
2017-11-29T04:37:24.881Z,49.45
2017-11-29T04:38:28.437Z,50.35
2017-11-29T04:39:30.998Z,50.40
2017-11-29T04:40:33.754Z,50.53
2017-11-29T04:41:37.047Z,50.97
2017-11-29T04:42:40.654Z,50.58
2017-11-29T04:43:43.211Z,49.97
2017-11-29T04:44:46.703Z,52.88
2017-11-29T04:45:49.259Z,54.17
2017-11-29T04:46:51.951Z,53.38
2017-11-29T04:47:54.535Z,53.55
2017-11-29T04:48:57.270Z,56.05
2017-11-29T04:49:59.837Z,61.10
2017-11-29T04:51:02.634Z,55.10
2017-11-29T04:52:05.194Z,60.38
2017-11-29T04:53:07.967Z,55.60
2017-11-29T04:54:10.519Z,57.00
2017-11-29T04:55:13.255Z,54.78
2017-11-29T04:56:15.815Z,58.05
2017-11-29T04:57:18.608Z,59.13
2017-11-29T04:58:21.981Z,57.62
2017-11-29T04:59:24.668Z,55.67
2017-11-29T05:00:27.973Z,57.00
2017-11-29T05:01:30.554Z,54.88
2017-11-29T05:02:33.145Z,57.38
2017-11-29T05:03:36.405Z,61.63
2017-11-29T05:04:38.962Z,57.80
2017-11-29T05:05:41.502Z,61.67
2017-11-29T05:06:45.030Z,59.08
2017-11-29T05:07:47.774Z,58.38
2017-11-29T05:08:51.714Z,66.10
2017-11-29T05:09:54.373Z,62.55
2017-11-29T05:10:56.917Z,63.03
2017-11-29T05:11:59.703Z,66.85
2017-11-29T05:13:02.244Z,64.12
2017-11-29T05:14:04.978Z,57.58
2017-11-29T05:15:07.530Z,55.08
2017-11-29T05:16:10.373Z,55.92
2017-11-29T05:17:12.959Z,57.45
2017-11-29T05:18:15.715Z,54.92
2017-11-29T05:19:18.257Z,56.50
2017-11-29T05:20:21.662Z,53.63
2017-11-29T05:21:24.200Z,53.95
2017-11-29T05:22:27.605Z,53.85
2017-11-29T05:23:30.946Z,53.67
2017-11-29T05:24:33.563Z,52.10
2017-11-29T05:25:36.112Z,53.05
2017-11-29T05:26:39.590Z,53.60
2017-11-29T05:27:42.895Z,52.33
2017-11-29T05:28:45.453Z,50.92
2017-11-29T05:29:48.769Z,50.95
2017-11-29T05:30:51.589Z,49.80
2017-11-29T05:31:54.119Z,50.67
2017-11-29T05:32:56.758Z,50.85
2017-11-29T05:33:59.341Z,49.17
2017-11-29T05:35:02.086Z,48.70
2017-11-29T05:36:05.399Z,45.38
2017-11-29T05:37:08.064Z,45.67
2017-11-29T05:38:10.627Z,47.45
2017-11-29T05:39:13.406Z,48.80
2017-11-29T05:40:16.893Z,45.60
2017-11-29T05:41:19.666Z,49.75
2017-11-29T05:42:22.384Z,48.67
2017-11-29T05:43:25.479Z,48.65
2017-11-29T05:44:28.830Z,45.35
2017-11-29T05:45:31.546Z,45.90
2017-11-29T05:46:34.874Z,46.80
2017-11-29T05:47:37.517Z,47.92
2017-11-29T05:48:40.053Z,45.78
2017-11-29T05:49:43.451Z,42.75
2017-11-29T05:50:46.774Z,44.47
2017-11-29T05:51:50.321Z,43.20
2017-11-29T05:52:53.844Z,42.47
2017-11-29T05:53:57.534Z,41.10
2017-11-29T05:55:00.150Z,40.50
2017-11-29T05:56:03.869Z,40.78
2017-11-29T05:57:07.173Z,41.72
2017-11-29T05:58:09.734Z,40.40
2017-11-29T05:59:12.305Z,41.25
2017-11-29T06:00:15.083Z,39.30
2017-11-29T06:01:17.690Z,39.15
2017-11-29T06:02:20.392Z,39.75
2017-11-29T06:03:23.786Z,39.42
2017-11-29T06:04:26.333Z,40.03
2017-11-29T06:05:29.638Z,40.67
2017-11-29T06:06:32.332Z,39.20
2017-11-29T06:07:34.877Z,37.55
2017-11-29T06:08:37.642Z,39.58
2017-11-29T06:09:40.189Z,39.55
2017-11-29T06:10:43.561Z,37.13
2017-11-29T06:11:46.117Z,38.55
2017-11-29T06:12:48.941Z,39.92
2017-11-29T06:13:51.520Z,38.97
2017-11-29T06:14:55.210Z,40.83
2017-11-29T06:15:57.761Z,42.78
2017-11-29T06:17:01.184Z,40.85
2017-11-29T06:18:03.730Z,42.88
2017-11-29T06:19:06.615Z,44.50
2017-11-29T06:20:09.263Z,42.38
2017-11-29T06:21:11.814Z,41.92
2017-11-29T06:22:15.138Z,42.90
2017-11-29T06:23:17.799Z,43.13
2017-11-29T06:24:20.694Z,44.08
2017-11-29T06:25:23.449Z,42.22
2017-11-29T06:26:26.817Z,44.38
2017-11-29T06:27:29.355Z,44.85
2017-11-29T06:28:32.702Z,43.30
2017-11-29T06:29:35.318Z,44.92
2017-11-29T06:30:38.612Z,44.63
2017-11-29T06:31:41.921Z,46.55
2017-11-29T06:32:44.496Z,46.60
2017-11-29T06:33:47.288Z,45.17
2017-11-29T06:34:49.808Z,44.38
2017-11-29T06:35:52.588Z,43.08
2017-11-29T06:36:55.130Z,43.83
2017-11-29T06:37:58.529Z,44.13
2017-11-29T06:39:01.088Z,42.47
2017-11-29T06:40:04.805Z,42.13
2017-11-29T06:41:07.334Z,45.58
2017-11-29T06:42:10.091Z,45.70
2017-11-29T06:43:12.626Z,42.70
2017-11-29T06:44:15.195Z,44.63
2017-11-29T06:45:17.847Z,44.20
2017-11-29T06:46:20.494Z,47.85
2017-11-29T06:47:23.864Z,44.88
2017-11-29T06:48:27.400Z,44.40
2017-11-29T06:49:29.968Z,43.67
2017-11-29T06:50:32.715Z,45.42
2017-11-29T06:51:35.270Z,45.90
2017-11-29T06:52:38.867Z,44.53
2017-11-29T06:53:42.173Z,43.28
2017-11-29T06:54:44.968Z,44.85
2017-11-29T06:55:47.505Z,46.17
2017-11-29T06:56:50.298Z,46.90
2017-11-29T06:57:52.855Z,46.85
2017-11-29T06:58:55.573Z,47.95
2017-11-29T06:59:58.135Z,46.55
2017-11-29T07:01:00.966Z,47.88
2017-11-29T07:02:03.501Z,47.03
2017-11-29T07:03:06.892Z,47.50
2017-11-29T07:04:09.448Z,47.60
2017-11-29T07:05:12.847Z,45.10
2017-11-29T07:06:15.407Z,47.08
2017-11-29T07:07:18.817Z,48.47
2017-11-29T07:08:21.617Z,50.90
2017-11-29T07:09:24.471Z,48.97
2017-11-29T07:10:27.029Z,49.50
2017-11-29T07:11:29.772Z,48.87
2017-11-29T07:12:33.112Z,48.83
2017-11-29T07:13:35.731Z,48.90
2017-11-29T07:14:39.042Z,48.10
2017-11-29T07:15:41.713Z,50.88
2017-11-29T07:16:44.319Z,52.80
2017-11-29T07:17:47.148Z,51.28
2017-11-29T07:18:49.801Z,48.40
2017-11-29T07:19:52.371Z,50.33
2017-11-29T07:20:55.362Z,49.25
2017-11-29T07:21:58.030Z,51.37
2017-11-29T07:23:00.619Z,52.70
2017-11-29T07:24:03.389Z,52.40
2017-11-29T07:25:05.995Z,48.70
2017-11-29T07:26:09.396Z,49.67
2017-11-29T07:27:12.708Z,50.85
2017-11-29T07:28:15.280Z,53.28
2017-11-29T07:29:17.827Z,49.40
2017-11-29T07:30:20.607Z,50.45
2017-11-29T07:31:23.159Z,50.00
2017-11-29T07:32:26.562Z,51.13
2017-11-29T07:33:29.141Z,51.03
2017-11-29T07:34:31.897Z,48.08
2017-11-29T07:35:34.472Z,48.40
2017-11-29T07:36:37.217Z,53.13
2017-11-29T07:37:40.559Z,48.47
2017-11-29T07:38:44.785Z,50.58
2017-11-29T07:39:47.325Z,52.97
2017-11-29T07:40:50.063Z,51.75
2017-11-29T07:41:52.626Z,52.88
2017-11-29T07:42:55.455Z,54.47
2017-11-29T07:43:59.553Z,52.42
2017-11-29T07:45:02.275Z,57.25
2017-11-29T07:46:04.838Z,53.08
2017-11-29T07:47:07.628Z,55.70
2017-11-29T07:48:10.200Z,55.20
2017-11-29T07:49:12.976Z,54.88
2017-11-29T07:50:15.529Z,52.75
2017-11-29T07:51:18.285Z,53.03
2017-11-29T07:52:20.853Z,55.22
2017-11-29T07:53:23.626Z,51.15
2017-11-29T07:54:26.197Z,50.35
2017-11-29T07:55:28.971Z,50.58
2017-11-29T07:56:31.516Z,51.00
2017-11-29T07:57:34.899Z,50.05
2017-11-29T07:58:38.198Z,49.33
2017-11-29T07:59:40.882Z,50.92
2017-11-29T08:00:43.434Z,49.88
2017-11-29T08:01:47.151Z,46.97
2017-11-29T08:02:49.695Z,45.28
2017-11-29T08:03:52.433Z,48.33
2017-11-29T08:04:55.158Z,47.95
2017-11-29T08:05:57.815Z,45.53
2017-11-29T08:07:00.493Z,46.08
2017-11-29T08:08:03.205Z,44.03
2017-11-29T08:09:05.781Z,44.97
2017-11-29T08:10:08.516Z,44.80
2017-11-29T08:11:11.068Z,44.63
2017-11-29T08:12:13.816Z,45.12
2017-11-29T08:13:17.121Z,41.97
2017-11-29T08:14:19.793Z,44.35
2017-11-29T08:15:22.357Z,42.42
2017-11-29T08:16:25.087Z,43.30
2017-11-29T08:17:28.415Z,42.70
2017-11-29T08:18:31.064Z,41.20
2017-11-29T08:19:33.620Z,42.55
2017-11-29T08:20:37.095Z,42.08
2017-11-29T08:21:40.431Z,41.75
2017-11-29T08:22:44.207Z,41.40
2017-11-29T08:23:46.786Z,38.83
2017-11-29T08:24:49.551Z,37.10
2017-11-29T08:25:52.148Z,41.78
2017-11-29T08:26:58.554Z,39.65
2017-11-29T08:28:01.884Z,41.05
2017-11-29T08:29:04.635Z,39.70
2017-11-29T08:30:07.173Z,40.03
2017-11-29T08:31:10.489Z,40.28
2017-11-29T08:32:13.025Z,37.50
2017-11-29T08:33:17.274Z,40.15
2017-11-29T08:34:19.798Z,36.72
2017-11-29T08:35:23.290Z,38.03
2017-11-29T08:36:26.606Z,41.37
2017-11-29T08:37:29.246Z,39.92
2017-11-29T08:38:31.797Z,36.10
2017-11-29T08:39:35.423Z,39.15
2017-11-29T08:40:37.979Z,34.28
2017-11-29T08:41:40.526Z,36.75
2017-11-29T08:42:43.844Z,35.60
2017-11-29T08:43:47.410Z,33.95
2017-11-29T08:44:50.724Z,36.83
2017-11-29T08:45:53.363Z,35.30
2017-11-29T08:46:56.735Z,32.78
2017-11-29T08:48:00.245Z,34.25
2017-11-29T08:49:02.777Z,33.40
2017-11-29T08:50:06.171Z,30.58
2017-11-29T08:51:09.495Z,29.90
2017-11-29T08:52:12.174Z,30.45
2017-11-29T08:53:14.701Z,28.87
2017-11-29T08:54:18.103Z,30.73
2017-11-29T08:55:20.658Z,29.37
2017-11-29T08:56:24.071Z,31.00
2017-11-29T08:57:26.639Z,30.20
2017-11-29T08:58:29.365Z,28.55
2017-11-29T08:59:32.723Z,28.15
2017-11-29T09:00:35.399Z,26.50
2017-11-29T09:01:39.186Z,26.30
2017-11-29T09:02:41.929Z,27.83
2017-11-29T09:03:44.477Z,26.75
2017-11-29T09:04:47.243Z,27.08
2017-11-29T09:05:50.557Z,22.70
2017-11-29T09:06:53.207Z,27.67
2017-11-29T09:07:55.890Z,26.12
2017-11-29T09:08:58.820Z,25.00
2017-11-29T09:10:01.393Z,24.58
2017-11-29T09:11:04.825Z,24.23
2017-11-29T09:12:07.374Z,23.62
2017-11-29T09:13:10.255Z,23.98
2017-11-29T09:14:12.808Z,25.45
2017-11-29T09:15:16.180Z,21.67
2017-11-29T09:16:19.510Z,22.02
2017-11-29T09:17:22.058Z,23.15
2017-11-29T09:18:24.646Z,23.02
2017-11-29T09:19:27.391Z,24.33
2017-11-29T09:20:30.720Z,24.10
2017-11-29T09:21:33.337Z,23.60
2017-11-29T09:22:36.732Z,23.90
2017-11-29T09:23:40.247Z,25.55
2017-11-29T09:24:42.813Z,27.40
2017-11-29T09:25:45.548Z,27.10
2017-11-29T09:26:48.842Z,27.20
2017-11-29T09:27:52.161Z,28.23
2017-11-29T09:28:54.715Z,26.02
2017-11-29T09:29:57.454Z,25.15
2017-11-29T09:31:00.833Z,26.37
2017-11-29T09:32:03.428Z,27.65
2017-11-29T09:33:05.988Z,25.65
2017-11-29T09:34:08.968Z,26.87
2017-11-29T09:35:11.518Z,23.90
2017-11-29T09:36:15.039Z,25.98
2017-11-29T09:37:17.576Z,26.15
2017-11-29T09:38:20.979Z,26.55
2017-11-29T09:39:23.579Z,25.23
2017-11-29T09:40:27.220Z,26.00
2017-11-29T09:41:30.555Z,27.40
2017-11-29T09:42:33.217Z,27.17
2017-11-29T09:43:35.916Z,26.15
2017-11-29T09:44:39.479Z,25.30
2017-11-29T09:45:42.133Z,26.23
2017-11-29T09:46:44.862Z,25.02
2017-11-29T09:47:47.451Z,25.52
2017-11-29T09:48:50.307Z,25.33
2017-11-29T09:49:52.853Z,24.63
2017-11-29T09:50:56.419Z,26.25
2017-11-29T09:51:59.009Z,23.40
2017-11-29T09:53:01.723Z,25.40
2017-11-29T09:54:04.304Z,24.70
2017-11-29T09:55:09.002Z,25.45
2017-11-29T09:56:12.307Z,23.67
2017-11-29T09:57:14.984Z,23.55
2017-11-29T09:58:17.535Z,27.00
2017-11-29T09:59:20.236Z,23.87
2017-11-29T10:00:22.828Z,26.90
2017-11-29T10:01:25.575Z,27.25
2017-11-29T10:02:28.283Z,25.88
2017-11-29T10:03:31.794Z,25.20
2017-11-29T10:04:34.386Z,26.15
2017-11-29T10:05:37.500Z,28.10
2017-11-29T10:06:40.241Z,27.42
2017-11-29T10:07:42.792Z,25.95
2017-11-29T10:08:45.374Z,26.27
2017-11-29T10:09:48.130Z,27.05
2017-11-29T10:10:50.694Z,25.42
2017-11-29T10:11:54.362Z,27.48
2017-11-29T10:12:57.678Z,28.55
2017-11-29T10:14:00.339Z,26.85
2017-11-29T10:15:02.883Z,28.20
2017-11-29T10:16:07.539Z,26.92
2017-11-29T10:17:10.123Z,29.37
2017-11-29T10:18:12.891Z,30.02
2017-11-29T10:19:15.438Z,27.30
2017-11-29T10:20:18.206Z,27.98
2017-11-29T10:21:20.796Z,30.27
2017-11-29T10:22:23.525Z,29.48
2017-11-29T10:23:26.219Z,28.85
2017-11-29T10:24:28.866Z,30.15
2017-11-29T10:25:32.272Z,30.30
2017-11-29T10:26:34.828Z,30.62
2017-11-29T10:27:37.801Z,33.40
2017-11-29T10:28:40.463Z,29.87
2017-11-29T10:29:43.780Z,30.45
2017-11-29T10:30:46.407Z,30.37
2017-11-29T10:31:49.748Z,32.05
2017-11-29T10:32:52.372Z,30.00
2017-11-29T10:33:54.897Z,30.77
2017-11-29T10:34:57.451Z,31.27
2017-11-29T10:36:00.019Z,32.80
2017-11-29T10:37:02.772Z,31.77
2017-11-29T10:38:05.888Z,32.85
2017-11-29T10:39:08.444Z,29.40
2017-11-29T10:40:11.000Z,33.45
2017-11-29T10:41:13.733Z,32.17
2017-11-29T10:42:16.324Z,34.17
2017-11-29T10:43:19.098Z,31.37
2017-11-29T10:44:21.628Z,32.20
2017-11-29T10:45:25.539Z,32.30
2017-11-29T10:46:28.878Z,31.55
2017-11-29T10:47:31.630Z,29.98
2017-11-29T10:48:34.226Z,31.52
2017-11-29T10:49:36.965Z,31.40
2017-11-29T10:50:39.501Z,31.50
2017-11-29T10:51:42.897Z,29.30
2017-11-29T10:52:45.441Z,29.33
2017-11-29T10:53:48.990Z,29.70
2017-11-29T10:54:51.587Z,29.42
2017-11-29T10:55:55.208Z,30.48
2017-11-29T10:56:58.618Z,30.73
2017-11-29T10:58:01.731Z,29.95
2017-11-29T10:59:05.486Z,28.35
2017-11-29T11:00:08.230Z,30.58
2017-11-29T11:01:11.569Z,31.50
2017-11-29T11:02:15.193Z,30.42
2017-11-29T11:03:17.786Z,30.00
2017-11-29T11:04:20.558Z,30.20
2017-11-29T11:05:23.888Z,31.67
2017-11-29T11:06:26.431Z,30.17
2017-11-29T11:07:29.054Z,32.03
2017-11-29T11:08:32.434Z,29.15
2017-11-29T11:09:35.011Z,31.25
2017-11-29T11:10:38.324Z,31.60
2017-11-29T11:11:40.881Z,32.22
2017-11-29T11:12:44.244Z,30.35
2017-11-29T11:13:46.830Z,29.00
2017-11-29T11:14:50.564Z,29.25
2017-11-29T11:15:53.094Z,32.53
2017-11-29T11:16:55.860Z,31.45
2017-11-29T11:17:59.174Z,30.20
2017-11-29T11:19:01.954Z,30.83
2017-11-29T11:20:04.494Z,31.75
2017-11-29T11:21:09.033Z,29.25
2017-11-29T11:22:11.588Z,31.67
2017-11-29T11:23:14.468Z,29.00
2017-11-29T11:24:17.009Z,28.17
2017-11-29T11:25:19.683Z,29.87
2017-11-29T11:26:22.234Z,31.20
2017-11-29T11:27:25.674Z,27.70
2017-11-29T11:28:28.228Z,31.05
2017-11-29T11:29:30.973Z,27.77
2017-11-29T11:30:33.553Z,29.30
2017-11-29T11:31:36.274Z,28.67
2017-11-29T11:32:39.038Z,27.35
2017-11-29T11:33:41.660Z,28.33
2017-11-29T11:34:44.192Z,28.87
2017-11-29T11:35:47.642Z,27.25
2017-11-29T11:36:50.203Z,28.05
2017-11-29T11:37:52.944Z,26.87
2017-11-29T11:38:55.501Z,26.85
2017-11-29T11:39:58.901Z,24.98
2017-11-29T11:41:01.490Z,26.15
2017-11-29T11:42:04.289Z,25.70
2017-11-29T11:43:06.875Z,25.98
2017-11-29T11:44:09.597Z,26.75
2017-11-29T11:55:02.216Z,21.12
2017-11-29T11:56:05.649Z,22.73
2017-11-29T11:57:08.196Z,25.95
2017-11-29T11:58:10.993Z,25.15
2017-11-29T11:59:13.535Z,24.37
2017-11-29T12:00:16.387Z,25.00
2017-11-29T12:01:18.946Z,23.65
2017-11-29T12:02:21.655Z,22.42
2017-11-29T12:03:24.974Z,23.65
2017-11-29T12:04:27.669Z,23.80
2017-11-29T12:05:30.237Z,23.35
2017-11-29T12:06:33.105Z,22.85
2017-11-29T12:07:35.657Z,22.75
2017-11-29T12:08:38.327Z,22.02
2017-11-29T12:09:41.088Z,23.38
2017-11-29T12:10:44.153Z,21.62
2017-11-29T12:11:46.730Z,22.05
2017-11-29T12:12:49.294Z,21.60
2017-11-29T12:13:51.836Z,21.35
2017-11-29T12:14:55.243Z,21.62
2017-11-29T12:15:57.818Z,21.12
2017-11-29T12:17:00.612Z,22.55
2017-11-29T12:18:03.179Z,22.35
2017-11-29T12:19:05.899Z,20.60
2017-11-29T12:20:09.205Z,21.25
2017-11-29T12:21:11.849Z,20.83
2017-11-29T12:22:15.182Z,20.08
2017-11-29T12:23:17.818Z,21.83
2017-11-29T12:24:21.134Z,19.98
2017-11-29T12:25:23.772Z,19.15
2017-11-29T12:26:27.226Z,19.05
2017-11-29T12:27:29.764Z,19.70
2017-11-29T12:28:32.302Z,19.73
2017-11-29T12:29:35.069Z,21.08
2017-11-29T12:30:37.637Z,19.92
2017-11-29T12:31:41.448Z,19.20
2017-11-29T12:32:44.011Z,17.33
2017-11-29T12:33:46.686Z,16.85
2017-11-29T12:34:49.256Z,18.65
2017-11-29T12:35:52.010Z,16.08
2017-11-29T12:36:54.562Z,16.50
2017-11-29T12:38:00.210Z,16.00
2017-11-29T12:39:02.778Z,17.15
2017-11-29T12:40:05.470Z,16.85
2017-11-29T12:54:13.045Z,16.60
2017-11-29T12:55:15.805Z,17.02
2017-11-29T12:56:18.350Z,16.70
2017-11-29T12:57:21.705Z,18.70
2017-11-29T12:58:24.278Z,16.23
2017-11-29T12:59:28.969Z,17.80
2017-11-29T13:00:31.612Z,18.17
2017-11-29T13:01:34.181Z,17.40
2017-11-29T13:02:36.743Z,17.30
2017-11-29T13:03:39.512Z,17.92
2017-11-29T13:04:42.542Z,18.75
2017-11-29T13:05:45.180Z,19.05
2017-11-29T13:06:47.743Z,18.80
2017-11-29T13:07:51.510Z,18.42
2017-11-29T13:08:54.820Z,17.95
2017-11-29T13:10:00.792Z,17.83
2017-11-29T13:11:03.344Z,18.75
2017-11-29T13:12:06.081Z,17.42
2017-11-29T13:13:09.392Z,18.62
2017-11-29T13:14:12.350Z,18.92
2017-11-29T13:15:14.896Z,17.73
2017-11-29T13:16:18.309Z,17.75
2017-11-29T13:17:20.879Z,19.20
2017-11-29T13:18:23.679Z,17.67
2017-11-29T13:19:26.498Z,19.10
2017-11-29T13:20:29.915Z,19.00
2017-11-29T13:21:32.487Z,18.37
2017-11-29T13:22:35.229Z,19.52
2017-11-29T13:23:38.615Z,20.37
2017-11-29T13:24:41.178Z,19.42
2017-11-29T13:25:44.519Z,19.83
2017-11-29T13:26:47.157Z,19.83
2017-11-29T13:27:49.830Z,21.55
2017-11-29T13:28:52.537Z,19.05
2017-11-29T13:29:55.088Z,20.15
2017-11-29T13:30:58.062Z,20.42
2017-11-29T13:32:00.711Z,19.00
2017-11-29T13:33:03.795Z,19.95
2017-11-29T13:34:06.366Z,19.37
2017-11-29T13:35:10.092Z,19.65
2017-11-29T13:36:13.031Z,21.70
2017-11-29T13:37:15.740Z,20.85
2017-11-29T13:38:18.314Z,19.75
2017-11-29T13:39:21.668Z,20.98
2017-11-29T13:40:24.246Z,22.33
2017-11-29T13:41:27.898Z,21.70
2017-11-29T13:42:30.474Z,19.42
2017-11-29T13:43:33.230Z,20.42
2017-11-29T13:44:36.662Z,19.15
2017-11-29T13:45:39.210Z,21.83
2017-11-29T13:46:41.757Z,20.77
2017-11-29T13:47:44.647Z,22.48
2017-11-29T13:48:47.204Z,20.80
2017-11-29T13:49:49.948Z,22.95
2017-11-29T13:50:53.237Z,21.25
2017-11-29T13:51:56.822Z,22.73
2017-11-29T13:53:00.191Z,22.10